首页
METAR-TAF:

METAR-TAF

机场 :

Mankato, 明尼蘇達州, 美国

纬度: 44-13N, 经度: 093-55W, 海拔: 311米

当前天气观测

该预报发布于21分钟前的04:56 UTC
温度
气压
能見度: 16.1公里

METAR: KMKT 250456Z AUTO 10SM RMK AO2 SLPNO FZRANO $

时间: 23:17 (05:17 UTC)

预报

该预报发布于5小时和52分钟前的23:25 UTC
预报有效从25日的 00点(UTC)到 25日的 24点(UTC)
风速7节,风向北转西北
能見度: 10公里
阴天层高于900英尺
从 25日的 2000点(UTC)
风速6节,风向西北
能見度: 10公里
阴天层高于1400英尺

TAF: KMKT 242325Z 2500/2524 33007KT P6SM OVC009 FM252000 31006KT P6SM OVC014 AMD NOT SKED

超过4000个机场的气象观测和天气预报(METAR&TAF报告)。

可查询的气象台以黄色和红色小点在地图上表示。

将鼠标移到小点上方,可查看气象台名称。

然后点击查看天气观测和预报。

如需切换地图:点击带黑十字的绿色按钮放大地图;点击带横线的绿色按钮缩小地图;或者点击绿色箭头查看邻近地区的地图。


METAR-TAF: